createdAt,value
2023-04-10T00:00:57.697Z,97.10
2023-04-10T00:03:27.063Z,97.09
2023-04-10T00:05:55.546Z,97.21
2023-04-10T00:08:24.230Z,95.48
2023-04-10T00:10:53.306Z,94.58
2023-04-10T00:13:21.726Z,94.97
2023-04-10T00:15:50.170Z,95.48
2023-04-10T00:18:19.458Z,95.39
2023-04-10T00:20:47.313Z,95.89
2023-04-10T00:23:15.433Z,96.65
2023-04-10T00:25:43.287Z,95.44
2023-04-10T00:28:11.152Z,95.06
2023-04-10T00:30:39.588Z,95.45
2023-04-10T00:33:07.465Z,96.22
2023-04-10T00:35:36.717Z,96.30
2023-04-10T00:38:04.648Z,96.04
2023-04-10T00:40:32.526Z,95.76
2023-04-10T00:43:00.614Z,96.21
2023-04-10T00:45:28.866Z,95.90
2023-04-10T00:47:57.035Z,95.73
2023-04-10T00:50:25.545Z,95.81
2023-04-10T00:52:54.739Z,95.77
2023-04-10T00:55:23.433Z,95.77
2023-04-10T00:57:51.325Z,95.73
2023-04-10T01:00:19.970Z,95.56
2023-04-10T01:02:49.242Z,96.27
2023-04-10T01:05:18.496Z,95.92
2023-04-10T01:08:00.739Z,95.92
2023-04-10T01:10:39.498Z,94.84
2023-04-10T01:13:15.526Z,95.63
2023-04-10T01:15:48.848Z,95.85
2023-04-10T01:18:23.934Z,95.57
2023-04-10T01:20:51.786Z,95.09
2023-04-10T01:24:04.604Z,95.46
2023-04-10T01:26:44.315Z,95.42
2023-04-10T01:29:19.633Z,96.90
2023-04-10T01:31:53.487Z,96.12
2023-04-10T01:34:24.885Z,95.94
2023-04-10T01:36:56.360Z,96.53
2023-04-10T01:39:28.144Z,96.70
2023-04-10T01:41:59.868Z,97.32
2023-04-10T01:44:42.843Z,96.83
2023-04-10T01:47:11.241Z,96.33
2023-04-10T01:49:44.381Z,96.48
2023-04-10T01:52:13.006Z,95.93
2023-04-10T01:54:43.318Z,96.31
2023-04-10T01:57:15.245Z,96.48
2023-04-10T01:59:56.104Z,96.27
2023-04-10T02:02:24.293Z,96.40
2023-04-10T02:04:52.375Z,97.21
2023-04-10T02:07:26.649Z,96.60
2023-04-10T02:10:01.053Z,95.60
2023-04-10T02:12:32.034Z,96.29
2023-04-10T02:15:03.917Z,96.37
2023-04-10T02:17:34.204Z,95.93
2023-04-10T02:20:06.551Z,94.46
2023-04-10T02:22:35.435Z,95.69
2023-04-10T02:25:05.517Z,96.34
2023-04-10T02:27:35.576Z,96.91
2023-04-10T02:30:05.868Z,97.05
2023-04-10T02:32:36.942Z,96.76
2023-04-10T02:35:09.227Z,97.01
2023-04-10T02:37:38.638Z,97.49
2023-04-10T02:40:07.925Z,96.93
2023-04-10T02:42:47.479Z,95.76
2023-04-10T02:45:16.861Z,95.74
2023-04-10T02:47:45.515Z,95.57
2023-04-10T02:50:13.556Z,96.51
2023-04-10T02:52:45.009Z,96.17
2023-04-10T02:55:13.073Z,96.30
2023-04-10T02:57:42.543Z,96.55
2023-04-10T03:00:11.755Z,96.59
2023-04-10T03:03:10.372Z,96.29
2023-04-10T03:05:49.539Z,96.98
2023-04-10T03:08:20.187Z,96.97
2023-04-10T03:10:49.452Z,96.53
2023-04-10T03:13:17.516Z,96.01
2023-04-10T03:15:45.555Z,96.19
2023-04-10T03:18:15.081Z,96.37
2023-04-10T03:20:45.403Z,96.57
2023-04-10T03:23:13.456Z,97.34
2023-04-10T03:25:42.263Z,97.86
2023-04-10T03:28:10.863Z,97.67
2023-04-10T03:30:38.939Z,97.04
2023-04-10T03:33:06.797Z,97.07
2023-04-10T03:35:35.982Z,96.89
2023-04-10T03:38:03.854Z,97.15
2023-04-10T03:40:31.628Z,96.75
2023-04-10T03:42:59.596Z,96.71
2023-04-10T03:45:29.407Z,96.42
2023-04-10T03:47:57.306Z,97.40
2023-04-10T03:50:26.096Z,97.37
2023-04-10T03:53:01.739Z,96.95
2023-04-10T03:55:29.679Z,97.33
2023-04-10T03:57:57.765Z,97.28
2023-04-10T04:00:27.275Z,97.75
2023-04-10T04:03:05.022Z,97.23
2023-04-10T04:05:57.611Z,97.74
2023-04-10T04:08:26.878Z,97.25
2023-04-10T04:11:30.066Z,97.52
2023-04-10T04:14:04.294Z,97.39
2023-04-10T04:16:45.071Z,97.50
2023-04-10T04:19:27.807Z,97.24
2023-04-10T04:22:31.029Z,97.19
2023-04-10T04:25:22.713Z,97.25
2023-04-10T04:28:21.064Z,96.99
2023-04-10T04:31:18.095Z,96.39
2023-04-10T04:34:04.547Z,96.87
2023-04-10T04:37:10.663Z,96.69
2023-04-10T04:40:12.344Z,95.76
2023-04-10T04:42:59.554Z,95.96
2023-04-10T04:45:45.912Z,96.38
2023-04-10T04:48:30.691Z,96.34
2023-04-10T04:51:18.616Z,97.11
2023-04-10T04:53:50.992Z,96.85
2023-04-10T04:56:46.949Z,96.41
2023-04-10T04:59:47.234Z,96.37
2023-04-10T05:02:38.066Z,95.43
2023-04-10T05:05:26.135Z,96.38
2023-04-10T05:08:10.865Z,96.75
2023-04-10T05:10:47.827Z,97.23
2023-04-10T05:13:30.868Z,97.16
2023-04-10T05:16:15.926Z,97.15
2023-04-10T05:19:02.145Z,96.33
2023-04-10T05:21:53.267Z,95.83
2023-04-10T05:24:33.618Z,96.54
2023-04-10T05:27:16.163Z,96.57
2023-04-10T05:30:19.286Z,96.05
2023-04-10T05:33:07.177Z,96.02
2023-04-10T05:36:07.915Z,96.17
2023-04-10T05:38:51.109Z,96.18
2023-04-10T05:41:48.070Z,95.70
2023-04-10T05:44:36.127Z,95.91
2023-04-10T05:47:04.070Z,96.26
2023-04-10T05:49:59.132Z,95.25
2023-04-10T05:52:36.576Z,94.90
2023-04-10T05:55:24.384Z,93.51
2023-04-10T05:58:15.382Z,91.77
2023-04-10T06:01:03.155Z,90.13
2023-04-10T06:03:45.441Z,90.20
2023-04-10T06:06:15.080Z,89.74
2023-04-10T06:08:42.946Z,91.17
2023-04-10T06:11:10.857Z,91.93
2023-04-10T06:13:39.140Z,93.55
2023-04-10T06:16:08.090Z,94.59
2023-04-10T06:18:36.152Z,93.88
2023-04-10T06:21:04.930Z,93.30
2023-04-10T06:23:34.159Z,90.40
2023-04-10T06:26:03.420Z,91.82
2023-04-10T06:28:31.489Z,91.10
2023-04-10T06:31:04.275Z,89.23
2023-04-10T06:33:36.621Z,87.02
2023-04-10T06:36:06.864Z,88.55
2023-04-10T06:38:41.260Z,87.88
2023-04-10T06:41:09.227Z,90.26
2023-04-10T06:43:38.084Z,89.81
2023-04-10T06:46:06.466Z,88.85
2023-04-10T06:48:34.837Z,90.19
2023-04-10T06:51:02.819Z,88.06
2023-04-10T06:53:31.198Z,88.88
2023-04-10T06:56:03.152Z,87.88
2023-04-10T06:58:32.021Z,87.24
2023-04-10T07:01:04.456Z,85.98
2023-04-10T07:03:32.802Z,84.48
2023-04-10T07:06:01.980Z,83.32
2023-04-10T07:08:29.851Z,83.31
2023-04-10T07:10:58.719Z,82.13
2023-04-10T07:13:28.198Z,81.32
2023-04-10T07:15:56.126Z,80.48
2023-04-10T07:18:24.028Z,79.54
2023-04-10T07:20:52.607Z,79.30
2023-04-10T07:23:20.630Z,79.42
2023-04-10T07:25:48.434Z,76.57
2023-04-10T07:28:16.387Z,76.96
2023-04-10T07:30:45.508Z,73.80
2023-04-10T07:33:13.508Z,73.37
2023-04-10T07:35:41.666Z,72.97
2023-04-10T07:38:09.757Z,72.56
2023-04-10T07:40:37.560Z,69.83
2023-04-10T07:43:05.493Z,69.27
2023-04-10T07:45:33.745Z,69.74
2023-04-10T07:48:03.531Z,68.13
2023-04-10T07:50:31.897Z,69.77
2023-04-10T07:53:03.493Z,68.83
2023-04-10T07:55:31.353Z,68.72
2023-04-10T07:57:59.191Z,66.31
2023-04-10T08:00:27.106Z,65.43
2023-04-10T08:02:55.065Z,64.81
2023-04-10T08:05:24.526Z,62.81
2023-04-10T08:07:52.441Z,60.32
2023-04-10T08:10:20.311Z,60.02
2023-04-10T08:12:48.188Z,58.37
2023-04-10T08:15:16.238Z,60.74
2023-04-10T08:17:44.054Z,56.92
2023-04-10T08:20:13.017Z,56.97
2023-04-10T08:22:42.143Z,55.34
2023-04-10T08:25:10.790Z,58.28
2023-04-10T08:27:38.968Z,55.38
2023-04-10T08:30:07.883Z,55.32
2023-04-10T08:32:36.578Z,54.64
2023-04-10T08:35:04.738Z,53.81
2023-04-10T08:37:32.466Z,52.38
2023-04-10T08:40:01.691Z,53.81
2023-04-10T08:42:29.534Z,53.22
2023-04-10T08:44:57.423Z,52.37
2023-04-10T08:47:29.151Z,51.62
2023-04-10T08:49:58.498Z,51.06
2023-04-10T08:52:27.737Z,50.21
2023-04-10T08:54:57.514Z,52.92
2023-04-10T08:57:27.986Z,53.19
2023-04-10T08:59:56.477Z,50.96
2023-04-10T09:02:25.771Z,49.32
2023-04-10T09:04:55.588Z,49.77
2023-04-10T09:07:24.242Z,50.85
2023-04-10T09:09:52.066Z,50.28
2023-04-10T09:12:19.907Z,51.37
2023-04-10T09:14:53.304Z,50.50
2023-04-10T09:17:22.637Z,49.04
2023-04-10T09:19:52.429Z,47.68
2023-04-10T09:22:29.735Z,49.05
2023-04-10T09:24:59.339Z,50.99
2023-04-10T09:27:35.217Z,47.88
2023-04-10T09:30:05.693Z,48.71
2023-04-10T09:32:41.965Z,49.70
2023-04-10T09:35:11.756Z,46.31
2023-04-10T09:37:41.132Z,47.46
2023-04-10T09:40:22.338Z,45.93
2023-04-10T09:42:50.376Z,44.84
2023-04-10T09:45:20.475Z,47.85
2023-04-10T09:48:02.791Z,45.24
2023-04-10T09:50:38.022Z,46.07
2023-04-10T09:53:07.582Z,48.47
2023-04-10T09:55:36.326Z,44.45
2023-04-10T09:58:05.323Z,44.80
2023-04-10T10:00:39.844Z,45.86
2023-04-10T10:03:10.145Z,44.27
2023-04-10T10:05:41.074Z,43.78
2023-04-10T10:08:11.072Z,42.33
2023-04-10T10:10:46.043Z,43.34
2023-04-10T10:13:19.018Z,42.44
2023-04-10T10:15:56.112Z,43.24
2023-04-10T10:18:32.213Z,43.47
2023-04-10T10:21:01.178Z,42.97
2023-04-10T10:23:29.688Z,43.47
2023-04-10T10:26:00.231Z,42.38
2023-04-10T10:28:32.538Z,41.66
2023-04-10T10:31:03.637Z,43.66
2023-04-10T10:33:31.821Z,41.95
2023-04-10T10:36:01.365Z,42.15
2023-04-10T10:38:29.494Z,42.45
2023-04-10T10:41:07.828Z,41.23
2023-04-10T10:43:43.411Z,42.27
2023-04-10T10:46:18.492Z,40.83
2023-04-10T10:48:57.788Z,39.77
2023-04-10T10:51:25.903Z,39.58
2023-04-10T10:53:53.840Z,41.38
2023-04-10T10:56:35.499Z,40.34
2023-04-10T10:59:03.361Z,40.11
2023-04-10T11:01:32.787Z,39.36
2023-04-10T11:04:01.371Z,40.98
2023-04-10T11:06:53.516Z,42.31
2023-04-10T11:09:45.814Z,40.87
2023-04-10T11:12:14.028Z,41.28
2023-04-10T11:14:43.616Z,39.61
2023-04-10T11:17:12.962Z,41.42
2023-04-10T11:20:01.547Z,40.30
2023-04-10T11:22:29.528Z,42.06
2023-04-10T11:24:59.956Z,39.62
2023-04-10T11:27:42.381Z,41.04
2023-04-10T11:30:43.573Z,40.15
2023-04-10T11:33:18.939Z,40.67
2023-04-10T11:35:47.450Z,40.22
2023-04-10T11:38:18.151Z,40.54
2023-04-10T11:40:59.569Z,39.94
2023-04-10T11:43:27.562Z,40.12
2023-04-10T11:46:03.487Z,39.71
2023-04-10T11:48:33.310Z,39.55
2023-04-10T11:51:07.453Z,40.41
2023-04-10T11:53:35.372Z,41.14
2023-04-10T11:56:03.113Z,39.43
2023-04-10T11:58:32.034Z,39.40
2023-04-10T12:01:01.180Z,40.23
2023-04-10T12:03:35.623Z,39.77
2023-04-10T12:06:04.098Z,39.33
2023-04-10T12:08:32.808Z,39.67
2023-04-10T12:11:01.332Z,39.70
2023-04-10T12:13:30.589Z,39.49
2023-04-10T12:16:03.466Z,39.96
2023-04-10T12:18:31.989Z,39.59
2023-04-10T12:21:01.958Z,39.97
2023-04-10T12:23:31.115Z,39.69
2023-04-10T12:26:11.294Z,40.70
2023-04-10T12:28:40.509Z,40.69
2023-04-10T12:31:09.414Z,39.63
2023-04-10T12:33:37.570Z,40.20
2023-04-10T12:36:07.357Z,40.37
2023-04-10T12:38:42.784Z,40.45
2023-04-10T12:41:11.686Z,41.04
2023-04-10T12:43:41.187Z,40.86
2023-04-10T12:46:11.243Z,39.25
2023-04-10T12:48:39.318Z,40.48
2023-04-10T12:51:08.829Z,40.08
2023-04-10T12:53:45.252Z,39.92
2023-04-10T12:56:14.686Z,40.75
2023-04-10T12:58:42.708Z,40.43
2023-04-10T13:01:11.044Z,39.74
2023-04-10T13:03:39.144Z,40.50
2023-04-10T13:06:09.429Z,40.09
2023-04-10T13:08:37.095Z,40.18
2023-04-10T13:11:05.626Z,39.45
2023-04-10T13:13:33.650Z,40.55
2023-04-10T13:16:01.647Z,41.93
2023-04-10T13:18:29.587Z,40.73
2023-04-10T13:20:57.443Z,40.61
2023-04-10T13:23:26.639Z,41.69
2023-04-10T13:25:54.625Z,40.52
2023-04-10T13:28:22.582Z,40.98
2023-04-10T13:30:50.515Z,38.94
2023-04-10T13:33:18.402Z,38.75
2023-04-10T13:35:46.353Z,39.02
2023-04-10T13:38:14.332Z,39.89
2023-04-10T13:40:43.698Z,39.43
2023-04-10T13:43:11.536Z,39.60
2023-04-10T13:45:39.295Z,38.97
2023-04-10T13:48:08.139Z,40.48
2023-04-10T13:50:36.126Z,39.58
2023-04-10T13:53:03.997Z,41.14
2023-04-10T13:55:31.805Z,38.04
2023-04-10T13:58:01.130Z,37.83
2023-04-10T14:00:28.960Z,37.86
2023-04-10T14:02:57.135Z,39.41
2023-04-10T14:05:25.153Z,37.66
2023-04-10T14:07:56.801Z,38.50
2023-04-10T14:10:24.669Z,38.61
2023-04-10T14:12:52.482Z,37.93
2023-04-10T14:15:21.761Z,37.29
2023-04-10T14:17:49.699Z,38.04
2023-04-10T14:20:17.635Z,38.07
2023-04-10T14:22:47.355Z,38.03
2023-04-10T14:25:15.935Z,38.61
2023-04-10T14:27:44.247Z,38.50
2023-04-10T14:30:13.743Z,37.80
2023-04-10T14:32:43.941Z,38.45
2023-04-10T14:35:11.753Z,38.48
2023-04-10T14:37:39.981Z,37.36
2023-04-10T14:40:08.925Z,37.05
2023-04-10T14:42:36.796Z,36.71
2023-04-10T14:45:06.188Z,36.53
2023-04-10T14:47:34.129Z,36.49
2023-04-10T14:50:03.708Z,36.60
2023-04-10T14:52:31.571Z,36.05
2023-04-10T14:54:59.381Z,36.05
2023-04-10T14:57:28.072Z,37.40
2023-04-10T14:59:56.067Z,34.90
2023-04-10T15:02:24.416Z,36.14
2023-04-10T15:04:52.405Z,36.88
2023-04-10T15:07:21.704Z,37.85
2023-04-10T15:09:49.483Z,36.24
2023-04-10T15:12:17.581Z,35.01
2023-04-10T15:14:45.468Z,36.04
2023-04-10T15:17:13.522Z,35.26
2023-04-10T15:19:41.420Z,34.34
2023-04-10T15:22:09.363Z,35.20
2023-04-10T15:24:49.879Z,35.83
2023-04-10T15:27:20.226Z,35.54
2023-04-10T15:29:50.250Z,35.05
2023-04-10T15:32:18.111Z,35.51
2023-04-10T15:34:45.939Z,34.03
2023-04-10T15:37:13.776Z,34.21
2023-04-10T15:39:43.112Z,34.41
2023-04-10T15:42:11.007Z,34.54
2023-04-10T15:44:38.881Z,36.25
2023-04-10T15:47:06.795Z,34.64
2023-04-10T15:49:38.514Z,34.56
2023-04-10T15:52:06.910Z,34.95
2023-04-10T15:54:35.389Z,35.75
2023-04-10T15:57:04.881Z,35.57
2023-04-10T15:59:33.813Z,36.33
2023-04-10T16:02:01.895Z,35.66
2023-04-10T16:04:31.453Z,35.31
2023-04-10T16:06:59.599Z,35.71
2023-04-10T16:09:27.650Z,35.79
2023-04-10T16:11:56.154Z,36.12
2023-04-10T16:14:25.629Z,36.13
2023-04-10T16:16:55.930Z,36.71
2023-04-10T16:19:23.926Z,36.91
2023-04-10T16:21:51.801Z,36.85
2023-04-10T16:24:19.574Z,37.55
2023-04-10T16:26:47.452Z,36.41
2023-04-10T16:29:16.038Z,36.50
2023-04-10T16:31:45.500Z,36.84
2023-04-10T16:34:13.478Z,37.64
2023-04-10T16:36:41.313Z,37.70
2023-04-10T16:39:09.136Z,37.83
2023-04-10T16:41:36.978Z,37.56
2023-04-10T16:44:07.918Z,38.86
2023-04-10T16:46:36.247Z,38.49
2023-04-10T16:49:05.718Z,38.64
2023-04-10T16:51:33.737Z,38.81
2023-04-10T16:54:01.616Z,38.45
2023-04-10T16:56:29.422Z,38.79
2023-04-10T16:58:57.824Z,38.81
2023-04-10T17:01:26.082Z,38.94
2023-04-10T17:03:54.722Z,38.95
2023-04-10T17:06:24.057Z,39.33
2023-04-10T17:08:51.972Z,39.58
2023-04-10T17:11:19.812Z,39.72
2023-04-10T17:13:47.812Z,40.33
2023-04-10T17:16:16.434Z,39.96
2023-04-10T17:18:44.547Z,39.48
2023-04-10T17:21:13.246Z,39.85
2023-04-10T17:23:42.691Z,39.51
2023-04-10T17:26:14.702Z,39.71
2023-04-10T17:28:44.869Z,39.64
2023-04-10T17:31:13.146Z,39.65
2023-04-10T17:33:42.154Z,40.20
2023-04-10T17:36:12.248Z,39.78
2023-04-10T17:38:40.468Z,40.68
2023-04-10T17:41:10.534Z,40.40
2023-04-10T17:43:38.428Z,39.96
2023-04-10T17:46:06.915Z,40.26
2023-04-10T17:48:35.204Z,40.75
2023-04-10T17:51:06.273Z,41.16
2023-04-10T17:53:34.245Z,41.56
2023-04-10T17:56:02.179Z,41.71
2023-04-10T17:58:31.691Z,41.24
2023-04-10T18:00:59.778Z,41.01
2023-04-10T18:03:27.795Z,41.19
2023-04-10T18:05:56.750Z,41.42
2023-04-10T18:08:24.740Z,41.33
2023-04-10T18:10:52.800Z,41.60
2023-04-10T18:13:20.675Z,40.85
2023-04-10T18:15:50.011Z,41.35
2023-04-10T18:18:17.871Z,42.01
2023-04-10T18:20:45.938Z,42.02
2023-04-10T18:23:13.866Z,41.82
2023-04-10T18:25:41.941Z,41.67
2023-04-10T18:28:14.976Z,41.87
2023-04-10T18:30:43.938Z,42.25
2023-04-10T18:33:14.191Z,42.10
2023-04-10T18:35:42.234Z,42.67
2023-04-10T18:38:10.254Z,42.05
2023-04-10T18:40:38.344Z,42.14
2023-04-10T18:43:06.376Z,42.39
2023-04-10T18:45:34.969Z,42.22
2023-04-10T18:48:03.016Z,42.58
2023-04-10T18:50:35.071Z,43.19
2023-04-10T18:53:03.267Z,42.56
2023-04-10T18:55:31.357Z,43.07
2023-04-10T18:57:59.250Z,43.46
2023-04-10T19:00:27.216Z,43.68
2023-04-10T19:02:56.442Z,43.84
2023-04-10T19:05:24.566Z,43.82
2023-04-10T19:08:03.553Z,43.65
2023-04-10T19:10:32.568Z,43.16
2023-04-10T19:13:00.346Z,43.06
2023-04-10T19:15:28.317Z,42.79
2023-04-10T19:17:56.590Z,42.39
2023-04-10T19:20:50.871Z,42.41
2023-04-10T19:23:14.132Z,42.36
2023-04-10T19:25:43.662Z,42.41
2023-04-10T19:28:11.663Z,42.34
2023-04-10T19:30:39.598Z,42.16
2023-04-10T19:33:07.558Z,42.27
2023-04-10T19:35:35.509Z,42.67
2023-04-10T19:38:03.457Z,42.33
2023-04-10T19:40:32.727Z,42.01
2023-04-10T19:43:01.974Z,41.52
2023-04-10T19:45:32.174Z,41.92
2023-04-10T19:48:00.404Z,42.14
2023-04-10T19:50:29.459Z,42.43
2023-04-10T19:52:57.309Z,42.59
2023-04-10T19:55:25.131Z,41.75
2023-04-10T19:57:54.666Z,42.65
2023-04-10T20:00:22.535Z,41.83
2023-04-10T20:02:50.510Z,42.98
2023-04-10T20:05:18.573Z,43.11
2023-04-10T20:07:46.480Z,42.65
2023-04-10T20:10:14.285Z,42.37
2023-04-10T20:12:42.360Z,43.26
2023-04-10T20:15:12.578Z,42.69
2023-04-10T20:17:40.636Z,42.39
2023-04-10T20:20:09.490Z,41.81
2023-04-10T20:22:37.306Z,42.10
2023-04-10T20:25:05.594Z,42.26
2023-04-10T20:27:33.416Z,42.63
2023-04-10T20:30:01.258Z,42.05
2023-04-10T20:32:30.512Z,42.16
2023-04-10T20:34:58.319Z,41.93
2023-04-10T20:37:26.232Z,41.82
2023-04-10T20:39:54.094Z,42.19
2023-04-10T20:42:23.148Z,43.07
2023-04-10T20:44:51.036Z,42.68
2023-04-10T20:47:18.900Z,43.08
2023-04-10T20:49:48.055Z,42.29
2023-04-10T20:52:15.859Z,42.46
2023-04-10T20:54:43.629Z,43.62
2023-04-10T20:57:11.483Z,47.34
2023-04-10T20:59:39.334Z,49.67
2023-04-10T21:02:07.615Z,55.78
2023-04-10T21:04:35.755Z,61.77
2023-04-10T21:07:04.889Z,68.45
2023-04-10T21:09:32.714Z,73.42
2023-04-10T21:12:00.520Z,77.88
2023-04-10T21:14:28.279Z,76.28
2023-04-10T21:16:56.192Z,79.59
2023-04-10T21:19:24.121Z,81.54
2023-04-10T21:21:51.981Z,88.29
2023-04-10T21:24:21.124Z,88.90
2023-04-10T21:26:48.948Z,86.33
2023-04-10T21:29:16.835Z,87.44
2023-04-10T21:31:44.789Z,91.92
2023-04-10T21:34:12.595Z,88.92
2023-04-10T21:36:40.469Z,90.62
2023-04-10T21:39:09.208Z,94.39
2023-04-10T21:41:38.882Z,92.31
2023-04-10T21:44:07.837Z,93.18
2023-04-10T21:46:35.684Z,94.13
2023-04-10T21:49:03.564Z,93.68
2023-04-10T21:51:31.426Z,97.09
2023-04-10T21:53:59.265Z,94.39
2023-04-10T21:56:27.117Z,96.30
2023-04-10T21:58:56.502Z,97.51
2023-04-10T22:01:24.435Z,97.12
2023-04-10T22:03:53.823Z,99.31
2023-04-10T22:06:21.981Z,99.86
2023-04-10T22:08:49.973Z,98.10
2023-04-10T22:11:17.878Z,97.56
2023-04-10T22:13:45.926Z,100.00
2023-04-10T22:16:15.491Z,100.00
2023-04-10T22:18:43.281Z,100.00
2023-04-10T22:21:11.135Z,100.00
2023-04-10T22:23:38.925Z,100.00
2023-04-10T22:26:07.336Z,100.00
2023-04-10T22:28:35.457Z,100.00
2023-04-10T22:31:03.335Z,100.00
2023-04-10T22:33:34.424Z,100.00
2023-04-10T22:36:02.275Z,100.00
2023-04-10T22:38:30.163Z,100.00
2023-04-10T22:40:58.166Z,100.00
2023-04-10T22:43:26.074Z,100.00
2023-04-10T22:45:53.926Z,100.00
2023-04-10T22:48:21.837Z,100.00
2023-04-10T22:50:51.068Z,100.00
2023-04-10T22:53:18.881Z,100.00
2023-04-10T22:55:46.800Z,100.00
2023-04-10T22:58:14.616Z,100.00
2023-04-10T23:00:42.522Z,100.00
2023-04-10T23:03:10.567Z,100.00
2023-04-10T23:05:38.520Z,100.00
2023-04-10T23:08:10.365Z,100.00
2023-04-10T23:10:38.226Z,100.00
2023-04-10T23:13:06.080Z,100.00
2023-04-10T23:15:34.268Z,100.00
2023-04-10T23:18:02.059Z,100.00
2023-04-10T23:20:29.905Z,100.00
2023-04-10T23:22:57.740Z,100.00
2023-04-10T23:25:26.965Z,100.00
2023-04-10T23:27:55.520Z,100.00
2023-04-10T23:30:23.498Z,100.00
2023-04-10T23:32:51.465Z,100.00
2023-04-10T23:35:19.394Z,100.00
2023-04-10T23:37:47.426Z,100.00
2023-04-10T23:40:15.362Z,100.00
2023-04-10T23:42:44.598Z,100.00
2023-04-10T23:45:12.783Z,100.00
2023-04-10T23:47:40.636Z,100.00
2023-04-10T23:50:09.683Z,100.00
2023-04-10T23:52:37.619Z,100.00
2023-04-10T23:55:06.367Z,100.00
2023-04-10T23:57:34.238Z,100.00
